Time;durP1;ratioP1;P1;durP2;ratioP2;P2;SDS_P1;SDS_P2;PMS_P1;PMS_P2;Temp;Humidity;BMP_temperature;BMP_pressure;BME280_temperature;BME280_humidity;BME280_pressure;Samples;Min_cycle;Max_cycle;Signal;HPM_P1;HPM_P2
2021/08/21 00:01:43;;;;;;;16.70;11.88;;;15.50;99.90;;;;;;5045325;28;20049;-78
2021/08/21 00:04:12;;;;;;;26.35;12.52;;;15.50;99.90;;;;;;5047125;28;20141;-78
2021/08/21 00:06:38;;;;;;;19.63;12.10;;;15.60;99.90;;;;;;5059617;28;20041;-78
2021/08/21 00:09:04;;;;;;;17.88;12.57;;;15.60;99.90;;;;;;5047342;28;20033;-78
2021/08/21 00:11:30;;;;;;;16.17;11.90;;;15.60;99.90;;;;;;5043852;28;20037;-78
2021/08/21 00:13:56;;;;;;;18.35;12.50;;;15.60;99.90;;;;;;5053998;28;20127;-78
2021/08/21 00:16:22;;;;;;;19.77;13.27;;;15.60;99.90;;;;;;5058918;28;20082;-78
2021/08/21 00:18:48;;;;;;;21.95;13.77;;;15.60;99.90;;;;;;5060980;28;20128;-78
2021/08/21 00:21:14;;;;;;;19.17;13.23;;;15.70;99.90;;;;;;5062091;28;20076;-78
2021/08/21 00:23:41;;;;;;;19.95;13.55;;;15.60;99.90;;;;;;5039909;28;20552;-78
2021/08/21 00:26:08;;;;;;;21.73;13.35;;;15.70;99.90;;;;;;5049903;28;20044;-78
2021/08/21 00:28:34;;;;;;;18.00;12.75;;;15.70;99.90;;;;;;5032135;28;20102;-78
2021/08/21 00:30:59;;;;;;;20.80;12.57;;;15.70;99.90;;;;;;5049458;28;20041;-78
2021/08/21 00:33:25;;;;;;;19.60;13.02;;;15.70;99.90;;;;;;5064040;28;20150;-77
2021/08/21 00:35:51;;;;;;;19.63;13.25;;;15.80;99.90;;;;;;5068048;28;20029;-78
2021/08/21 00:38:17;;;;;;;17.95;12.50;;;15.80;99.90;;;;;;5039386;28;20103;-78
2021/08/21 00:40:42;;;;;;;19.75;13.32;;;15.80;99.90;;;;;;5050576;28;20472;-78
2021/08/21 00:43:08;;;;;;;21.05;14.68;;;15.80;99.90;;;;;;5046004;28;20053;-78
2021/08/21 00:45:34;;;;;;;22.08;14.10;;;15.80;99.90;;;;;;5063238;28;20487;-78
2021/08/21 00:48:01;;;;;;;23.67;13.70;;;15.90;99.90;;;;;;5031200;28;20128;-78
2021/08/21 00:50:26;;;;;;;26.30;14.60;;;15.90;99.90;;;;;;5050570;28;20060;-78
2021/08/21 00:52:52;;;;;;;22.85;14.45;;;15.90;99.90;;;;;;5044232;28;20053;-79
2021/08/21 00:55:18;;;;;;;25.80;14.55;;;15.90;99.90;;;;;;5049204;28;20043;-78
2021/08/21 00:57:44;;;;;;;20.15;14.27;;;15.90;99.90;;;;;;5064492;28;20041;-78
2021/08/21 01:00:10;;;;;;;20.23;14.10;;;15.90;99.90;;;;;;5031829;28;20960;-78
2021/08/21 01:02:37;;;;;;;21.20;13.77;;;15.90;99.90;;;;;;5059896;28;20103;-78
2021/08/21 01:05:05;;;;;;;20.45;14.15;;;16.00;99.90;;;;;;5047752;28;20044;-78
2021/08/21 01:07:33;;;;;;;21.00;13.63;;;15.90;99.90;;;;;;5044683;28;20096;-77
2021/08/21 01:10:04;;;;;;;20.58;13.68;;;16.00;99.90;;;;;;5035425;28;20135;-78
2021/08/21 01:12:30;;;;;;;17.30;12.48;;;16.00;99.90;;;;;;5043842;28;20051;-78
2021/08/21 01:14:56;;;;;;;17.55;12.18;;;16.00;99.90;;;;;;5044404;28;20417;-78
2021/08/21 01:17:22;;;;;;;19.98;12.98;;;16.00;99.90;;;;;;5058156;28;20051;-77
2021/08/21 01:19:49;;;;;;;21.85;12.40;;;16.00;99.90;;;;;;5048322;28;20049;-77
2021/08/21 01:22:18;;;;;;;19.40;12.20;;;16.00;99.90;;;;;;5051114;28;20029;-78
2021/08/21 01:24:46;;;;;;;21.00;12.00;;;16.00;99.90;;;;;;5049522;28;20032;-77
2021/08/21 01:27:20;;;;;;;19.52;12.68;;;16.00;99.90;;;;;;5047928;28;20477;-77
2021/08/21 01:29:47;;;;;;;19.07;12.23;;;16.00;99.90;;;;;;5039166;28;20037;-77
2021/08/21 01:32:13;;;;;;;17.85;12.23;;;16.00;99.90;;;;;;5044105;28;20812;-77
2021/08/21 01:34:39;;;;;;;21.55;12.63;;;16.00;99.90;;;;;;5054428;28;20490;-78
2021/08/21 01:37:05;;;;;;;18.95;12.20;;;16.10;99.90;;;;;;5038857;28;20053;-77
2021/08/21 01:39:31;;;;;;;18.55;12.63;;;16.10;99.90;;;;;;5048651;28;20095;-77
2021/08/21 01:41:57;;;;;;;19.88;13.38;;;16.10;99.90;;;;;;5046793;28;20051;-77
2021/08/21 01:44:22;;;;;;;19.52;13.10;;;16.10;99.90;;;;;;5059551;28;20801;-77
2021/08/21 01:46:49;;;;;;;19.75;12.70;;;16.00;99.90;;;;;;5061469;28;20067;-77
2021/08/21 01:49:19;;;;;;;22.63;12.73;;;16.10;99.90;;;;;;5054884;28;20032;-77
2021/08/21 01:51:47;;;;;;;18.95;12.70;;;16.10;99.90;;;;;;5053154;28;20059;-77
2021/08/21 01:54:18;;;;;;;17.95;12.57;;;16.00;99.90;;;;;;5054455;28;20036;-77
2021/08/21 01:56:53;;;;;;;20.23;13.10;;;16.10;99.90;;;;;;5052409;28;20064;-77
2021/08/21 01:59:29;;;;;;;17.90;12.75;;;16.10;99.90;;;;;;5051561;28;20452;-77
2021/08/21 02:01:56;;;;;;;19.40;12.75;;;16.10;99.90;;;;;;5056053;28;20033;-77
2021/08/21 02:04:22;;;;;;;19.65;12.45;;;16.00;99.90;;;;;;5062422;28;20047;-77
2021/08/21 02:06:49;;;;;;;20.95;13.85;;;16.00;99.90;;;;;;5052037;28;20141;-77
2021/08/21 02:09:17;;;;;;;19.45;13.63;;;16.00;99.90;;;;;;5050514;28;20373;-77
2021/08/21 02:11:43;;;;;;;24.73;13.57;;;16.00;99.90;;;;;;5059726;28;20076;-77
2021/08/21 02:14:10;;;;;;;20.45;13.05;;;16.00;99.90;;;;;;5053487;28;20072;-77
2021/08/21 02:16:35;;;;;;;23.98;13.55;;;16.00;99.90;;;;;;5062269;28;20056;-77
2021/08/21 02:19:01;;;;;;;21.45;13.30;;;16.00;99.90;;;;;;5057888;28;20412;-77
2021/08/21 02:21:27;;;;;;;22.70;13.35;;;16.00;99.90;;;;;;5057637;28;20340;-77
2021/08/21 02:23:57;;;;;;;20.25;13.15;;;16.00;99.90;;;;;;5051891;28;20057;-77
2021/08/21 02:26:23;;;;;;;20.42;14.23;;;16.00;99.90;;;;;;5038801;28;20060;-77
2021/08/21 02:28:49;;;;;;;19.85;13.65;;;16.10;99.90;;;;;;5057509;28;20059;-77
2021/08/21 02:31:15;;;;;;;19.52;13.13;;;16.10;99.90;;;;;;5039024;28;20029;-77
2021/08/21 02:33:41;;;;;;;20.00;13.60;;;16.10;99.90;;;;;;5048934;28;20049;-77
2021/08/21 02:36:06;;;;;;;22.33;13.02;;;16.00;99.90;;;;;;5062693;28;20036;-77
2021/08/21 02:38:32;;;;;;;23.80;14.27;;;16.10;99.90;;;;;;5051474;28;20515;-77
2021/08/21 02:40:58;;;;;;;23.63;13.00;;;16.10;99.90;;;;;;5065880;28;20391;-77
2021/08/21 02:43:24;;;;;;;18.60;13.27;;;16.10;99.90;;;;;;5050524;28;20112;-77
2021/08/21 02:45:50;;;;;;;21.25;13.38;;;16.10;99.90;;;;;;5050328;28;20033;-77
2021/08/21 02:48:15;;;;;;;18.95;13.02;;;16.20;99.90;;;;;;5038823;28;20041;-77
2021/08/21 02:50:42;;;;;;;18.95;13.43;;;16.20;99.90;;;;;;5046036;28;20966;-77
2021/08/21 02:53:07;;;;;;;20.17;12.52;;;16.20;99.90;;;;;;5048504;28;20543;-76
2021/08/21 02:55:33;;;;;;;19.63;12.73;;;16.20;99.90;;;;;;5034463;28;20048;-77
2021/08/21 02:57:59;;;;;;;19.27;12.88;;;16.20;99.90;;;;;;5062402;28;20083;-77
2021/08/21 03:00:26;;;;;;;17.58;12.93;;;16.20;99.90;;;;;;5048202;28;20033;-77
2021/08/21 03:02:51;;;;;;;18.05;13.30;;;16.20;99.90;;;;;;5038384;28;20886;-77
2021/08/21 03:05:17;;;;;;;19.20;13.75;;;16.20;99.90;;;;;;5061928;28;20033;-78
2021/08/21 03:07:43;;;;;;;20.25;13.23;;;16.30;99.90;;;;;;5048219;28;20429;-79
2021/08/21 03:10:09;;;;;;;18.75;13.60;;;16.30;99.90;;;;;;5050930;28;20343;-79
2021/08/21 03:12:35;;;;;;;20.70;13.93;;;16.30;99.90;;;;;;5063476;28;20057;-78
2021/08/21 03:15:01;;;;;;;22.13;14.00;;;16.20;99.90;;;;;;5051151;28;20361;-78
2021/08/21 03:17:27;;;;;;;21.58;13.50;;;16.30;99.90;;;;;;5043473;28;20094;-79
2021/08/21 03:19:53;;;;;;;20.90;14.30;;;16.30;99.90;;;;;;5044633;28;20037;-79
2021/08/21 03:22:18;;;;;;;19.73;14.75;;;16.30;99.90;;;;;;5066920;28;20053;-78
2021/08/21 03:24:44;;;;;;;21.58;15.70;;;16.30;99.90;;;;;;5050673;28;20108;-78
2021/08/21 03:27:10;;;;;;;21.92;15.93;;;16.30;99.90;;;;;;5048021;28;20387;-80
2021/08/21 03:29:36;;;;;;;25.17;16.48;;;16.30;99.90;;;;;;5047588;28;20037;-77
2021/08/21 03:32:03;;;;;;;24.98;16.38;;;16.30;99.90;;;;;;5049054;28;20051;-77
2021/08/21 03:34:29;;;;;;;24.77;17.17;;;16.30;99.90;;;;;;5051283;28;20487;-77
2021/08/21 03:36:55;;;;;;;29.08;16.88;;;16.20;99.90;;;;;;5055039;28;20045;-77
2021/08/21 03:39:21;;;;;;;23.83;16.33;;;16.30;99.90;;;;;;5047064;28;20057;-77
2021/08/21 03:41:47;;;;;;;27.17;17.30;;;16.30;99.90;;;;;;5057558;28;20090;-77
2021/08/21 03:44:14;;;;;;;25.55;17.20;;;16.30;99.90;;;;;;5046656;28;20053;-77
2021/08/21 03:46:39;;;;;;;28.80;17.73;;;16.30;99.90;;;;;;5042060;28;20112;-78
2021/08/21 03:49:06;;;;;;;27.48;18.27;;;16.30;99.90;;;;;;5062156;28;20112;-77
2021/08/21 03:51:32;;;;;;;23.38;17.20;;;16.20;99.90;;;;;;5047399;28;20037;-77
2021/08/21 03:53:58;;;;;;;25.00;18.05;;;16.10;99.90;;;;;;5046910;28;20119;-77
2021/08/21 03:56:23;;;;;;;26.02;18.48;;;16.20;99.90;;;;;;5060586;28;20559;-77
2021/08/21 03:58:49;;;;;;;23.77;17.92;;;16.20;99.90;;;;;;5058237;28;20091;-76
2021/08/21 04:01:15;;;;;;;24.25;18.67;;;16.20;99.90;;;;;;5048634;28;20035;-77
2021/08/21 04:03:41;;;;;;;27.00;18.85;;;16.20;99.90;;;;;;5050509;28;20037;-77
2021/08/21 04:06:07;;;;;;;26.85;18.48;;;16.20;99.90;;;;;;5065862;28;20115;-77
2021/08/21 04:08:33;;;;;;;34.92;19.85;;;16.20;99.90;;;;;;5045070;28;20041;-77
2021/08/21 04:10:59;;;;;;;27.20;19.55;;;16.20;99.90;;;;;;5049923;28;20025;-77
2021/08/21 04:13:28;;;;;;;30.00;19.77;;;16.10;99.90;;;;;;5046232;28;20040;-77
2021/08/21 04:15:54;;;;;;;29.05;19.33;;;16.10;99.90;;;;;;5049865;28;20043;-77
2021/08/21 04:18:20;;;;;;;28.63;18.50;;;16.10;99.90;;;;;;5048437;28;20052;-76
2021/08/21 04:20:46;;;;;;;29.23;19.30;;;16.10;99.90;;;;;;5045308;28;20044;-77
2021/08/21 04:23:11;;;;;;;27.35;18.48;;;16.10;99.90;;;;;;5048956;28;20090;-77
2021/08/21 04:25:37;;;;;;;26.45;18.73;;;16.10;99.90;;;;;;5048021;28;20443;-77
2021/08/21 04:28:03;;;;;;;28.60;18.98;;;16.10;99.90;;;;;;5046636;28;20435;-77
2021/08/21 04:30:30;;;;;;;29.00;20.08;;;16.10;99.90;;;;;;5059000;28;20048;-77
2021/08/21 04:32:56;;;;;;;26.63;19.10;;;16.10;99.90;;;;;;5058261;28;20053;-77
2021/08/21 04:35:21;;;;;;;28.23;19.80;;;16.10;99.90;;;;;;5049940;28;20036;-77
2021/08/21 04:37:48;;;;;;;30.52;20.70;;;16.10;99.90;;;;;;5045777;28;20087;-77
2021/08/21 04:40:14;;;;;;;31.05;20.50;;;16.10;99.90;;;;;;5042446;28;20044;-77
2021/08/21 04:42:40;;;;;;;28.08;20.17;;;16.10;99.90;;;;;;5048791;28;20124;-77
2021/08/21 04:45:07;;;;;;;30.75;19.70;;;16.10;99.90;;;;;;5049641;28;20111;-77
2021/08/21 04:47:34;;;;;;;33.47;20.38;;;16.10;99.90;;;;;;5046066;28;20098;-77
2021/08/21 04:49:59;;;;;;;30.55;19.58;;;16.00;99.90;;;;;;5048736;28;20095;-77
2021/08/21 04:52:25;;;;;;;34.67;21.48;;;16.10;99.90;;;;;;5048270;28;20423;-77
2021/08/21 04:54:51;;;;;;;29.63;20.08;;;16.10;99.90;;;;;;5058109;28;20047;-77
2021/08/21 04:57:17;;;;;;;30.13;20.65;;;16.10;99.90;;;;;;5046148;28;20037;-77
2021/08/21 04:59:43;;;;;;;31.95;21.30;;;16.20;99.90;;;;;;5048978;28;20113;-77
2021/08/21 05:02:09;;;;;;;33.22;20.35;;;16.10;99.90;;;;;;5047590;28;20506;-77
2021/08/21 05:04:35;;;;;;;32.47;20.50;;;16.20;99.90;;;;;;5050682;28;20045;-77
2021/08/21 05:07:01;;;;;;;32.28;21.02;;;16.10;99.90;;;;;;5045765;28;20113;-77
2021/08/21 05:09:26;;;;;;;30.25;20.35;;;16.20;99.90;;;;;;5063305;28;20040;-76
2021/08/21 05:11:52;;;;;;;27.40;20.25;;;16.20;99.90;;;;;;5044777;28;20041;-77
2021/08/21 05:14:18;;;;;;;28.60;19.88;;;16.20;99.90;;;;;;5043859;28;20056;-77
2021/08/21 05:16:46;;;;;;;32.70;20.75;;;16.30;99.90;;;;;;5046560;28;20048;-77
2021/08/21 05:20:06;;;;;;;29.90;20.17;;;16.30;99.90;;;;;;5045555;28;20037;-77
2021/08/21 05:22:24;;;;;;;28.77;20.17;;;16.30;99.90;;;;;;5035945;28;20143;-77
2021/08/21 05:24:51;;;;;;;29.08;20.30;;;16.40;99.90;;;;;;5036564;28;20037;-77
2021/08/21 05:27:18;;;;;;;30.98;21.10;;;16.40;99.90;;;;;;5048741;28;20525;-78
2021/08/21 05:29:44;;;;;;;29.13;19.58;;;16.50;99.90;;;;;;5051502;28;20518;-77
2021/08/21 05:32:11;;;;;;;30.98;20.58;;;16.50;99.90;;;;;;5042573;28;20394;-77
2021/08/21 05:34:37;;;;;;;33.10;20.38;;;16.60;99.90;;;;;;5055327;28;20056;-77
2021/08/21 05:37:03;;;;;;;28.27;19.75;;;16.60;99.90;;;;;;5043133;28;20037;-75
2021/08/21 05:39:32;;;;;;;29.50;19.73;;;16.60;99.90;;;;;;5045509;28;20051;-76
2021/08/21 05:42:01;;;;;;;28.52;20.27;;;16.70;99.90;;;;;;5058116;28;20056;-77
2021/08/21 05:44:27;;;;;;;27.92;19.98;;;16.70;99.90;;;;;;5047207;28;20037;-78
2021/08/21 05:46:53;;;;;;;29.77;19.50;;;16.70;99.90;;;;;;5044934;28;20028;-77
2021/08/21 05:49:19;;;;;;;27.95;19.52;;;16.70;99.90;;;;;;5044086;28;20210;-75
2021/08/21 05:51:45;;;;;;;26.52;19.02;;;16.70;99.90;;;;;;5057850;28;20029;-76
2021/08/21 05:54:10;;;;;;;29.27;19.70;;;16.70;99.90;;;;;;5042633;28;20479;-76
2021/08/21 05:56:36;;;;;;;29.08;20.38;;;16.80;99.90;;;;;;5047410;28;20044;-76
2021/08/21 05:59:02;;;;;;;30.10;20.27;;;16.70;99.90;;;;;;5044965;28;20080;-76
2021/08/21 06:01:29;;;;;;;34.30;20.33;;;16.70;99.90;;;;;;5058775;28;20064;-77
2021/08/21 06:03:55;;;;;;;32.17;21.15;;;16.70;99.90;;;;;;5044572;28;20029;-76
2021/08/21 06:06:21;;;;;;;30.65;21.13;;;16.70;99.90;;;;;;5045970;28;20093;-76
2021/08/21 06:08:46;;;;;;;27.70;20.88;;;16.80;99.90;;;;;;5046399;28;20072;-76
2021/08/21 06:11:12;;;;;;;29.98;21.05;;;16.70;99.90;;;;;;5049963;28;20061;-76
2021/08/21 06:13:38;;;;;;;32.47;21.95;;;16.70;99.90;;;;;;5045667;28;20033;-76
2021/08/21 06:16:04;;;;;;;34.60;23.15;;;16.70;99.90;;;;;;5042699;28;20686;-76
2021/08/21 06:18:33;;;;;;;31.35;21.70;;;16.60;99.90;;;;;;5045142;28;20037;-76
2021/08/21 06:20:59;;;;;;;33.15;22.33;;;16.60;99.90;;;;;;5059289;28;20064;-78
2021/08/21 06:23:25;;;;;;;30.67;22.35;;;16.60;99.90;;;;;;5051478;28;20048;-76
2021/08/21 06:25:51;;;;;;;31.35;22.00;;;16.60;99.90;;;;;;5049161;28;20033;-76
2021/08/21 06:28:17;;;;;;;32.05;23.05;;;16.60;99.90;;;;;;5051948;28;20596;-77
2021/08/21 06:30:43;;;;;;;32.85;23.23;;;16.70;99.90;;;;;;5061394;28;20116;-77
2021/08/21 06:33:09;;;;;;;36.60;24.67;;;16.70;99.90;;;;;;5068176;28;20400;-76
2021/08/21 06:35:35;;;;;;;39.40;24.65;;;16.80;99.90;;;;;;5051022;28;20041;-76
2021/08/21 06:38:01;;;;;;;38.30;24.80;;;16.80;99.90;;;;;;5044528;28;20041;-76
2021/08/21 06:40:26;;;;;;;38.45;26.60;;;16.80;99.90;;;;;;5045288;28;20116;-76
2021/08/21 06:42:52;;;;;;;35.17;25.23;;;16.90;99.90;;;;;;5047006;28;20349;-77
2021/08/21 06:45:18;;;;;;;40.00;27.92;;;17.00;99.90;;;;;;5043721;28;20084;-76
2021/08/21 06:47:44;;;;;;;36.35;26.77;;;17.00;99.90;;;;;;5037280;28;20099;-77
2021/08/21 06:50:10;;;;;;;39.08;26.00;;;17.10;99.90;;;;;;5045645;28;20671;-76
2021/08/21 06:52:36;;;;;;;39.47;26.67;;;17.10;99.90;;;;;;5044197;28;20052;-77
2021/08/21 06:55:02;;;;;;;35.70;26.42;;;17.20;99.90;;;;;;5049064;28;20037;-78
2021/08/21 06:57:28;;;;;;;37.80;26.45;;;17.30;99.90;;;;;;5050687;28;20110;-77
2021/08/21 06:59:57;;;;;;;36.17;25.88;;;17.50;99.90;;;;;;5051826;28;20067;-78
2021/08/21 07:02:23;;;;;;;40.15;27.63;;;17.60;99.90;;;;;;5062232;28;20127;-78
2021/08/21 07:04:49;;;;;;;40.03;27.35;;;17.70;99.90;;;;;;5050432;28;20490;-78
2021/08/21 07:07:15;;;;;;;37.95;27.02;;;17.80;99.90;;;;;;5044640;28;20057;-79
2021/08/21 07:09:41;;;;;;;42.53;26.92;;;18.00;99.90;;;;;;5065209;28;20106;-78
2021/08/21 07:12:07;;;;;;;34.22;25.17;;;18.10;99.90;;;;;;5065123;28;20072;-79
2021/08/21 07:14:33;;;;;;;34.80;24.80;;;18.20;99.90;;;;;;5049771;28;20064;-78
2021/08/21 07:16:59;;;;;;;36.40;25.42;;;18.30;99.90;;;;;;5049446;28;20032;-78
2021/08/21 07:19:25;;;;;;;21.88;14.15;;;18.40;99.90;;;;;;5050734;28;20049;-77
2021/08/21 07:21:53;;;;;;;17.10;10.35;;;18.50;99.90;;;;;;5067728;28;20969;-77
2021/08/21 07:24:19;;;;;;;31.17;20.73;;;18.80;99.90;;;;;;5064210;28;20543;-77
2021/08/21 07:26:45;;;;;;;31.17;22.05;;;18.90;99.90;;;;;;5058967;28;20472;-81
2021/08/21 07:29:11;;;;;;;27.15;20.02;;;19.20;99.90;;;;;;5058303;28;20047;-86
2021/08/21 07:31:37;;;;;;;31.60;20.70;;;19.20;99.90;;;;;;5054888;28;20033;-81
2021/08/21 07:34:03;;;;;;;31.10;21.83;;;19.30;99.90;;;;;;5061576;28;20076;-81
2021/08/21 07:36:29;;;;;;;24.13;19.48;;;19.40;99.90;;;;;;5063457;28;20076;-81
2021/08/21 07:38:55;;;;;;;28.92;21.60;;;19.50;99.90;;;;;;5051106;28;20495;-79
2021/08/21 07:41:21;;;;;;;26.63;18.70;;;19.60;99.90;;;;;;5045565;28;20033;-79
2021/08/21 07:43:47;;;;;;;27.02;21.30;;;19.70;99.90;;;;;;5053279;28;20039;-78
2021/08/21 07:46:13;;;;;;;26.65;21.40;;;19.70;99.90;;;;;;5052663;28;20119;-81
2021/08/21 07:48:44;;;;;;;27.63;21.20;;;19.90;99.90;;;;;;5066350;28;20138;-82
2021/08/21 07:51:13;;;;;;;30.23;22.57;;;19.90;99.90;;;;;;5040843;28;20708;-80
2021/08/21 07:53:39;;;;;;;32.35;22.80;;;20.00;99.90;;;;;;5067083;28;20061;-81
2021/08/21 07:56:06;;;;;;;27.42;21.70;;;20.00;99.90;;;;;;5053086;28;20483;-79
2021/08/21 07:58:33;;;;;;;24.67;19.00;;;20.20;99.90;;;;;;5047962;28;20037;-80
2021/08/21 08:01:07;;;;;;;26.90;21.73;;;20.30;99.90;;;;;;5040351;28;20029;-77
2021/08/21 08:03:33;;;;;;;27.08;20.10;;;20.40;99.90;;;;;;5051058;28;20087;-78
2021/08/21 08:05:59;;;;;;;29.17;19.98;;;20.60;99.90;;;;;;5053130;28;20037;-81
2021/08/21 08:08:25;;;;;;;21.20;17.65;;;20.70;99.90;;;;;;5044050;28;20417;-80
2021/08/21 08:10:51;;;;;;;27.17;19.85;;;20.80;99.90;;;;;;5039736;28;20053;-78
2021/08/21 08:13:18;;;;;;;26.30;18.77;;;20.80;99.90;;;;;;5064949;28;21796;-79
2021/08/21 08:15:44;;;;;;;25.70;18.75;;;21.00;99.90;;;;;;5049320;28;20116;-82
2021/08/21 08:18:11;;;;;;;21.58;15.88;;;21.00;99.90;;;;;;5063290;28;20057;-82
2021/08/21 08:20:36;;;;;;;17.23;13.15;;;21.20;99.90;;;;;;5062061;28;20052;-83
2021/08/21 08:23:04;;;;;;;15.82;12.27;;;21.20;99.90;;;;;;5043445;28;21898;-77
2021/08/21 08:25:31;;;;;;;16.02;12.57;;;21.30;99.90;;;;;;5051626;28;20037;-78
2021/08/21 08:27:57;;;;;;;22.77;16.70;;;21.40;99.90;;;;;;5050829;28;20048;-78
2021/08/21 08:30:23;;;;;;;21.35;16.27;;;21.40;99.90;;;;;;5047690;28;20444;-81
2021/08/21 08:32:49;;;;;;;23.67;17.38;;;21.40;99.90;;;;;;5048562;28;20052;-81
2021/08/21 08:35:16;;;;;;;20.38;15.60;;;21.50;99.90;;;;;;5042847;28;20067;-80
2021/08/21 08:37:42;;;;;;;24.92;17.92;;;21.50;99.90;;;;;;5044762;28;20044;-81
2021/08/21 08:40:09;;;;;;;29.42;17.23;;;21.50;99.90;;;;;;5042839;28;20045;-77
2021/08/21 08:42:45;;;;;;;22.33;16.17;;;21.50;99.90;;;;;;5041044;28;20033;-79
2021/08/21 08:45:14;;;;;;;26.42;17.58;;;21.60;99.90;;;;;;5040106;28;20040;-81
2021/08/21 08:47:41;;;;;;;27.45;16.10;;;21.70;99.90;;;;;;5032474;28;20152;-77
2021/08/21 08:50:09;;;;;;;21.73;14.70;;;21.70;99.90;;;;;;5043175;28;20047;-82
2021/08/21 08:52:36;;;;;;;23.60;16.48;;;21.70;99.90;;;;;;5028090;28;20056;-79
2021/08/21 08:55:04;;;;;;;25.42;16.23;;;21.80;99.90;;;;;;5038885;28;20039;-79
2021/08/21 08:57:41;;;;;;;21.70;14.93;;;21.70;99.90;;;;;;5038911;28;20539;-82
2021/08/21 09:00:16;;;;;;;23.75;14.38;;;21.70;99.90;;;;;;5037777;28;20057;-77
2021/08/21 09:03:03;;;;;;;24.33;16.08;;;21.70;99.90;;;;;;5041234;28;20045;-79
2021/08/21 09:05:42;;;;;;;19.88;14.25;;;21.60;99.90;;;;;;5046642;28;20040;-77
2021/08/21 09:08:23;;;;;;;19.08;12.32;;;21.70;99.90;;;;;;5043411;28;20087;-79
2021/08/21 09:10:50;;;;;;;19.50;12.77;;;21.80;99.90;;;;;;5040652;28;20067;-81
2021/08/21 09:13:18;;;;;;;23.33;12.75;;;21.90;99.90;;;;;;5028975;28;20110;-80
2021/08/21 09:15:54;;;;;;;17.80;13.27;;;22.10;99.90;;;;;;5045174;28;20112;-81
2021/08/21 09:18:22;;;;;;;18.70;12.48;;;22.30;99.90;;;;;;5042849;28;20056;-81
2021/08/21 09:20:59;;;;;;;18.95;12.13;;;22.40;99.90;;;;;;5043306;28;20049;-78
2021/08/21 09:23:43;;;;;;;16.17;11.50;;;22.40;99.90;;;;;;5045013;28;20574;-82
2021/08/21 09:26:19;;;;;;;17.60;11.25;;;22.50;99.90;;;;;;5028896;28;20053;-81
2021/08/21 09:28:48;;;;;;;18.52;13.80;;;22.50;99.90;;;;;;5047089;28;20049;-80
2021/08/21 09:31:24;;;;;;;18.25;13.15;;;22.40;99.90;;;;;;5046177;28;20053;-80
2021/08/21 09:33:50;;;;;;;17.85;11.77;;;22.40;99.90;;;;;;5043228;28;20717;-79
2021/08/21 09:36:27;;;;;;;22.08;15.55;;;22.40;99.90;;;;;;5045152;28;20037;-80
2021/08/21 09:38:52;;;;;;;17.73;13.50;;;22.20;99.90;;;;;;5027982;28;20045;-83
2021/08/21 09:41:18;;;;;;;20.75;15.35;;;22.20;99.90;;;;;;5060225;28;20071;-78
2021/08/21 09:43:44;;;;;;;18.45;14.02;;;22.30;99.90;;;;;;5045452;28;20032;-77
2021/08/21 09:46:18;;;;;;;16.27;11.88;;;22.20;99.90;;;;;;5043853;28;20048;-80
2021/08/21 09:48:56;;;;;;;15.23;10.98;;;22.10;99.90;;;;;;5044190;28;20068;-80
2021/08/21 09:51:54;;;;;;;15.70;12.80;;;22.20;99.90;;;;;;5041114;28;20136;-82
2021/08/21 09:54:22;;;;;;;19.30;13.20;;;22.30;99.90;;;;;;5039568;28;20421;-83
2021/08/21 09:56:56;;;;;;;14.43;11.77;;;22.20;99.90;;;;;;5041690;28;20029;-80
2021/08/21 09:59:40;;;;;;;14.75;8.43;;;22.50;99.90;;;;;;5042508;28;20052;-81
2021/08/21 10:02:07;;;;;;;;;;;22.50;99.90;;;;;;5043661;28;20052;-81
2021/08/21 10:04:34;;;;;;;15.25;11.40;;;22.50;99.90;;;;;;5042914;28;20335;-78
2021/08/21 10:07:05;;;;;;;14.45;9.57;;;22.40;99.90;;;;;;5044381;28;20049;-78
2021/08/21 10:09:37;;;;;;;12.10;9.23;;;22.40;99.90;;;;;;5037427;28;20077;-76
2021/08/21 10:12:06;;;;;;;12.35;9.75;;;22.40;99.90;;;;;;5051081;28;20119;-77
2021/08/21 10:14:34;;;;;;;11.60;9.35;;;22.50;99.90;;;;;;5040390;28;20565;-78
2021/08/21 10:17:01;;;;;;;16.02;10.50;;;22.90;99.90;;;;;;5045724;28;20079;-77
2021/08/21 10:19:27;;;;;;;12.43;10.25;;;23.10;99.90;;;;;;5043366;28;20047;-78
2021/08/21 10:22:00;;;;;;;13.65;10.48;;;23.30;99.90;;;;;;5046224;28;20187;-80
2021/08/21 10:24:27;;;;;;;16.48;10.30;;;23.50;99.90;;;;;;5055849;28;20070;-75
2021/08/21 10:27:01;;;;;;;14.48;9.95;;;23.70;99.90;;;;;;5046843;28;20045;-79
2021/08/21 10:29:30;;;;;;;10.20;8.30;;;23.80;99.90;;;;;;5058746;28;20072;-80
2021/08/21 10:31:56;;;;;;;12.93;9.20;;;23.80;99.90;;;;;;5043742;28;20037;-78
2021/08/21 10:34:22;;;;;;;9.63;8.15;;;24.10;99.90;;;;;;5038915;28;20111;-79
2021/08/21 10:36:50;;;;;;;11.38;7.72;;;24.00;99.90;;;;;;5045087;28;20032;-78
2021/08/21 10:39:15;;;;;;;12.65;8.00;;;24.50;99.90;;;;;;5041756;28;20033;-81
2021/08/21 10:41:41;;;;;;;10.45;7.15;;;24.40;99.90;;;;;;5051670;28;20044;-80
2021/08/21 10:44:07;;;;;;;10.68;8.02;;;24.30;99.90;;;;;;5046027;28;20044;-79
2021/08/21 10:46:33;;;;;;;12.30;7.50;;;24.30;99.90;;;;;;5046711;28;20061;-80
2021/08/21 10:48:58;;;;;;;9.90;7.10;;;24.10;99.90;;;;;;5049023;28;20113;-79
2021/08/21 10:51:36;;;;;;;10.60;7.15;;;24.30;99.90;;;;;;5047041;28;20045;-79
2021/08/21 10:54:25;;;;;;;7.80;6.93;;;24.30;99.90;;;;;;5046900;28;20137;-79
2021/08/21 10:56:51;;;;;;;10.48;8.52;;;24.10;99.90;;;;;;5042776;28;20059;-79
2021/08/21 10:59:40;;;;;;;11.43;7.40;;;23.90;99.90;;;;;;5045153;28;20053;-78
2021/08/21 11:02:24;;;;;;;11.93;7.43;;;23.70;99.90;;;;;;5058911;28;20056;-78
2021/08/21 11:04:55;;;;;;;9.43;7.00;;;23.70;99.90;;;;;;5045028;28;20503;-78
2021/08/21 11:07:29;;;;;;;7.32;6.43;;;23.90;99.90;;;;;;5040953;28;20108;-78
2021/08/21 11:10:30;;;;;;;7.15;5.13;;;23.90;99.90;;;;;;5049323;28;20055;-79
2021/08/21 11:12:56;;;;;;;7.03;4.97;;;23.90;99.90;;;;;;5063098;28;20040;-79
2021/08/21 11:15:33;;;;;;;7.97;5.90;;;24.10;99.90;;;;;;5048310;28;20049;-78
2021/08/21 11:17:59;;;;;;;6.97;6.20;;;24.00;99.90;;;;;;5045018;28;20481;-80
2021/08/21 11:20:28;;;;;;;6.07;5.05;;;24.00;99.90;;;;;;5050318;28;20449;-80
2021/08/21 11:23:06;;;;;;;5.10;4.60;;;23.90;99.90;;;;;;5058007;28;20053;-80
2021/08/21 11:25:50;;;;;;;8.88;4.70;;;24.00;99.90;;;;;;5035627;28;20049;-78
2021/08/21 11:28:28;;;;;;;8.43;5.28;;;23.90;99.90;;;;;;5046901;28;20033;-78
2021/08/21 11:31:13;;;;;;;6.28;4.82;;;24.00;99.90;;;;;;5052912;28;20476;-78
2021/08/21 11:33:40;;;;;;;5.70;4.60;;;24.30;99.90;;;;;;5045223;28;20060;-79
2021/08/21 11:36:09;;;;;;;5.35;4.85;;;24.50;99.90;;;;;;5051770;28;20075;-78
2021/08/21 11:38:39;;;;;;;4.78;3.80;;;24.90;99.90;;;;;;5046338;28;20476;-79
2021/08/21 11:41:24;;;;;;;4.40;3.80;;;25.10;99.90;;;;;;5043415;28;20072;-80
2021/08/21 11:43:50;;;;;;;4.68;3.45;;;25.10;99.90;;;;;;5058047;28;20119;-78
2021/08/21 11:46:24;;;;;;;3.97;3.60;;;25.30;99.90;;;;;;5049719;28;20752;-79
2021/08/21 11:48:49;;;;;;;4.07;3.67;;;24.90;99.90;;;;;;5044248;28;20048;-81
2021/08/21 11:51:21;;;;;;;5.57;3.83;;;24.90;99.90;;;;;;5048041;28;20477;-80
2021/08/21 11:53:48;;;;;;;5.10;3.75;;;25.20;99.90;;;;;;5056624;28;20135;-79
2021/08/21 11:56:14;;;;;;;5.32;4.18;;;25.20;99.90;;;;;;5041417;28;20068;-77
2021/08/21 11:58:46;;;;;;;4.32;3.92;;;25.40;99.90;;;;;;5040423;28;20058;-78
2021/08/21 12:01:13;;;;;;;4.75;4.25;;;25.00;99.90;;;;;;5044281;28;20029;-80
2021/08/21 12:06:23;;;;;;;4.00;3.60;;;24.70;99.90;;;;;;5043212;28;20044;-78
2021/08/21 12:08:49;;;;;;;4.63;3.92;;;24.60;99.90;;;;;;5041727;28;20072;-78
2021/08/21 12:11:39;;;;;;;4.68;3.40;;;24.50;99.90;;;;;;5033785;28;20344;-77
2021/08/21 12:14:37;;;;;;;5.90;3.13;;;24.40;99.90;;;;;;4980705;28;20054;-78
2021/08/21 12:17:12;;;;;;;4.53;3.83;;;24.80;99.90;;;;;;4983373;28;20034;-80
2021/08/21 12:20:07;;;;;;;4.40;3.45;;;25.20;99.90;;;;;;4955049;28;20116;-79
2021/08/21 12:22:34;;;;;;;2.03;1.92;;;25.50;99.90;;;;;;4968075;28;20038;-78
2021/08/21 12:25:49;;;;;;;2.20;2.00;;;26.10;99.90;;;;;;4971049;28;20046;-78
2021/08/21 12:28:33;;;;;;;2.08;1.70;;;26.60;99.90;;;;;;4957554;28;20061;-78
2021/08/21 12:31:05;;;;;;;1.63;1.48;;;27.20;99.90;;;;;;4948234;28;20042;-78
2021/08/21 12:33:41;;;;;;;1.92;1.73;;;27.50;99.90;;;;;;4950443;28;20137;-80
2021/08/21 12:36:20;;;;;;;4.57;2.00;;;27.50;99.20;;;;;;4941955;28;20062;-81
2021/08/21 12:39:10;;;;;;;3.53;2.20;;;27.30;99.60;;;;;;4966167;28;20069;-79
2021/08/21 12:41:52;;;;;;;2.42;2.20;;;27.00;98.60;;;;;;4962080;28;20035;-79